Henrik Krøyer Holme

KL  EN  DA
ASIAQ
Weather Now GREENLAND SURVEY
Updated [WGT/WGST] Temperature [°C] Wind [m/s] Air pressure [hPa] Relative humidity [%] Precipitation [mm]
Present Wind chill Speed Max
03.05 16:00-8,6-21,520,0 ⇓26,0101884n/a
03.05 15:00-8,7-21,520,0 ⇓25,0101784n/a
03.05 14:00-8,8-22,222,0 ⇓27,0101680n/a
03.05 13:00-9,1-22,521,0 ⇓26,0101676n/a
03.05 12:00-9,2-22,722,0 ⇓27,0101576n/a
03.05 11:00-9,2-22,923,0 ⇓28,0101572n/a
03.05 10:00-9,5-23,423,0 ⇓29,0101476n/a
03.05 09:00-9,4-23,424,0 ⇓31,0101373n/a
03.05 08:00-9,8-24,325,0 ⇓32,0101279n/a
03.05 07:00-9,6-23,925,0 ⇓31,0101172n/a
03.05 06:00-9,6-23,824,0 ⇓31,0101271n/a
03.05 05:00-9,8-24,225,0 ⇓31,0101173n/a
03.05 04:00-9,9-24,224,0 ⇓30,0101175n/a
03.05 03:00-10,1-24,122,0 ⇓27,0101075n/a
03.05 02:00-10,2-24,222,0 ⇓29,0101075n/a
03.05 01:00-10,2-24,122,0 ⇓28,0101074n/a
03.05 00:00-10,5-24,823,0 ⇓29,0101075n/a
02.05 23:00-10,3-24,724,0 ⇓30,0101071n/a
02.05 22:00-10,3-25,025,0 ⇓32,0100971n/a
02.05 21:00-10,2-25,126,0 ⇓31,0100871n/a
02.05 20:00-10,2-25,227,0 ⇓34,0100773n/a
02.05 19:00-10,1-24,826,0 ⇓33,0100777n/a
02.05 18:00-9,9-24,626,0 ⇓32,0100680n/a
02.05 17:00-9,8-24,124,0 ⇓32,0100776n/a
02.05 16:00-9,9-23,822,0 ⇓28,0100773n/a
Position: (80.649444,-13.711944)

[Back]